Time;durP1;ratioP1;P1;durP2;ratioP2;P2;SDS_P1;SDS_P2;PMS_P1;PMS_P2;Temp;Humidity;BMP_temperature;BMP_pressure;BME280_temperature;BME280_humidity;BME280_pressure;Samples;Min_cycle;Max_cycle;Signal;HPM_P1;HPM_P2
2023/01/19 00:01:31;;;;;;;6.38;4.70;;;;;;;4.12;80.87;100162.16;4995286;28;20039;-71
2023/01/19 00:03:59;;;;;;;7.75;5.32;;;;;;;3.49;83.51;100168.56;4993285;28;20046;-71
2023/01/19 00:06:26;;;;;;;7.90;5.10;;;;;;;3.48;85.04;100169.66;4985110;28;20046;-72
2023/01/19 00:08:54;;;;;;;8.77;5.30;;;;;;;3.67;84.05;100164.38;4976561;28;20069;-71
2023/01/19 00:11:21;;;;;;;9.60;5.60;;;;;;;3.39;84.80;100174.06;4980909;28;20418;-71
2023/01/19 00:13:49;;;;;;;11.00;6.35;;;;;;;3.22;85.43;100181.75;4978731;28;20384;-72
2023/01/19 00:16:18;;;;;;;9.15;5.90;;;;;;;3.73;85.76;100179.59;4997930;28;20066;-72
2023/01/19 00:18:47;;;;;;;8.93;5.95;;;;;;;3.59;84.38;100193.03;5008099;28;20410;-70
2023/01/19 00:21:14;;;;;;;10.18;6.18;;;;;;;3.18;85.70;100186.13;4984558;28;20054;-71
2023/01/19 00:23:42;;;;;;;12.45;6.60;;;;;;;3.27;86.53;100187.19;4976960;28;20042;-73
2023/01/19 00:26:10;;;;;;;10.90;6.00;;;;;;;3.53;86.55;100182.41;4985235;28;20604;-72
2023/01/19 00:28:38;;;;;;;10.60;6.53;;;;;;;3.37;85.85;100179.78;4972432;28;20054;-70
2023/01/19 00:31:05;;;;;;;11.30;7.20;;;;;;;3.63;86.23;100190.56;4984499;28;20053;-71
2023/01/19 00:33:33;;;;;;;11.38;7.13;;;;;;;3.60;86.13;100186.47;4991287;28;20521;-71
2023/01/19 00:36:00;;;;;;;11.38;7.90;;;;;;;3.89;86.08;100181.16;4978985;28;20043;-71
2023/01/19 00:38:28;;;;;;;15.80;7.88;;;;;;;3.56;85.45;100177.22;4991253;28;20047;-71
2023/01/19 00:40:56;;;;;;;11.80;8.25;;;;;;;3.72;84.66;100173.34;4980776;28;20047;-72
2023/01/19 00:43:24;;;;;;;16.27;8.55;;;;;;;3.48;85.39;100177.84;4978738;28;20039;-71
2023/01/19 00:45:52;;;;;;;13.20;8.07;;;;;;;3.54;85.83;100186.78;4994537;28;20050;-72
2023/01/19 00:48:19;;;;;;;16.13;8.70;;;;;;;3.40;86.00;100192.81;4976303;28;20798;-71
2023/01/19 00:50:48;;;;;;;14.40;9.23;;;;;;;3.76;86.03;100190.75;4996403;28;20065;-72
2023/01/19 00:53:15;;;;;;;14.02;8.88;;;;;;;3.61;84.67;100193.53;4971915;28;20049;-70
2023/01/19 00:55:43;;;;;;;15.70;9.10;;;;;;;3.68;85.34;100198.69;4980512;28;20046;-70
2023/01/19 00:58:10;;;;;;;14.98;8.68;;;;;;;3.63;85.45;100196.00;4977489;28;20058;-70
2023/01/19 01:00:38;;;;;;;12.93;8.43;;;;;;;4.07;84.86;100188.63;4994272;28;20046;-71
2023/01/19 01:03:05;;;;;;;14.82;8.57;;;;;;;4.11;83.95;100192.41;4980580;28;20348;-70
2023/01/19 01:05:33;;;;;;;12.75;7.70;;;;;;;4.27;82.66;100199.41;4974260;28;20507;-70
2023/01/19 01:08:01;;;;;;;12.82;8.15;;;;;;;4.08;82.04;100209.34;4979648;28;20050;-71
2023/01/19 01:10:28;;;;;;;13.57;7.95;;;;;;;3.87;81.90;100211.38;4993751;28;20485;-71
2023/01/19 01:12:56;;;;;;;13.02;7.80;;;;;;;3.79;82.74;100219.31;4984082;28;20051;-71
2023/01/19 01:15:26;;;;;;;14.45;8.18;;;;;;;4.05;83.01;100213.44;4980218;28;20050;-70
2023/01/19 01:17:54;;;;;;;15.80;9.43;;;;;;;3.59;82.80;100227.59;4970236;28;20058;-72
2023/01/19 01:20:26;;;;;;;15.45;9.63;;;;;;;3.69;84.25;100236.53;4961827;28;20051;-72
2023/01/19 01:22:55;;;;;;;16.10;8.85;;;;;;;3.58;83.89;100231.41;4983431;28;20054;-71
2023/01/19 01:25:24;;;;;;;13.93;9.07;;;;;;;3.19;85.36;100234.03;4979276;28;20051;-73
2023/01/19 01:27:52;;;;;;;19.95;9.68;;;;;;;2.46;86.85;100234.69;4958707;28;20047;-71
2023/01/19 01:30:20;;;;;;;16.05;10.15;;;;;;;2.27;88.89;100235.19;4959529;28;20051;-71
2023/01/19 01:32:48;;;;;;;23.55;10.60;;;;;;;2.39;91.79;100234.13;4991011;28;20047;-70
2023/01/19 01:35:16;;;;;;;21.35;11.32;;;;;;;2.55;90.58;100239.28;4973210;28;20055;-72
2023/01/19 01:37:44;;;;;;;18.73;11.23;;;;;;;2.37;90.00;100241.72;4968967;28;20054;-72
2023/01/19 01:40:13;;;;;;;22.90;12.02;;;;;;;2.33;91.20;100249.63;4956824;28;20047;-70
2023/01/19 01:42:41;;;;;;;22.83;11.85;;;;;;;2.31;91.34;100254.50;4963059;28;20055;-72
2023/01/19 01:45:37;;;;;;;19.98;11.07;;;;;;;2.40;91.02;100252.88;4972057;28;20058;-70
2023/01/19 01:48:21;;;;;;;23.00;11.93;;;;;;;2.70;90.96;100258.31;4962700;28;20136;-71
2023/01/19 01:51:23;;;;;;;22.50;12.20;;;;;;;2.75;90.09;100260.22;4989589;28;20402;-71
2023/01/19 01:54:08;;;;;;;19.73;11.07;;;;;;;3.01;89.07;100267.25;4951651;28;20048;-71
2023/01/19 01:56:38;;;;;;;21.35;12.10;;;;;;;3.18;88.80;100267.75;4958175;28;20069;-72
2023/01/19 01:59:10;;;;;;;21.63;12.10;;;;;;;3.57;88.20;100265.19;4988521;28;20063;-71
2023/01/19 02:04:26;;;;;;;20.02;11.13;;;;;;;3.49;87.24;100265.78;4953882;28;20051;-71
2023/01/19 02:15:19;;;;;;;22.73;12.40;;;;;;;3.93;86.32;100272.91;4983489;28;20051;-71
2023/01/19 02:17:46;;;;;;;22.63;12.20;;;;;;;3.98;85.56;100274.78;4958230;28;20055;-72
2023/01/19 02:20:15;;;;;;;21.98;12.80;;;;;;;3.87;83.92;100273.22;4957937;28;20051;-72
2023/01/19 02:22:48;;;;;;;23.33;12.45;;;;;;;4.25;84.32;100267.78;4961559;28;20062;-70
2023/01/19 02:25:18;;;;;;;20.70;11.63;;;;;;;4.13;82.40;100280.16;4957666;28;20095;-70
2023/01/19 02:27:46;;;;;;;20.45;12.15;;;;;;;3.99;82.21;100287.31;4980137;28;20065;-71
2023/01/19 02:30:15;;;;;;;22.60;12.40;;;;;;;3.44;83.79;100293.81;4971994;28;20487;-71
2023/01/19 02:32:43;;;;;;;23.35;12.40;;;;;;;3.53;84.10;100281.25;4993711;28;20050;-72
2023/01/19 02:35:11;;;;;;;21.40;12.13;;;;;;;3.66;84.72;100277.94;4991679;28;20446;-71
2023/01/19 02:37:39;;;;;;;19.33;11.27;;;;;;;3.43;84.05;100286.75;4975196;28;20053;-71
2023/01/19 02:40:12;;;;;;;20.75;11.20;;;;;;;3.40;83.67;100281.84;4989901;28;20513;-71
2023/01/19 02:42:43;;;;;;;18.83;11.13;;;;;;;3.75;83.52;100272.75;4989890;28;20061;-70
2023/01/19 02:45:13;;;;;;;20.90;11.75;;;;;;;3.60;82.88;100278.22;4958960;28;20054;-71
2023/01/19 02:47:44;;;;;;;;;;;;;;;3.94;82.02;100269.09;4977495;28;20084;-73
2023/01/19 02:50:40;;;;;;;20.95;11.27;;;;;;;3.52;82.08;100271.47;4955970;28;19926;-71
2023/01/19 02:53:28;;;;;;;20.80;11.25;;;;;;;3.50;82.37;100270.09;4976172;28;20397;-71
2023/01/19 02:56:10;;;;;;;20.67;11.73;;;;;;;3.70;82.52;100262.66;4974113;28;20054;-72
2023/01/19 02:59:02;;;;;;;19.83;11.75;;;;;;;3.75;81.76;100270.03;4986248;28;20050;-71
2023/01/19 03:02:00;;;;;;;18.80;11.57;;;;;;;3.90;81.67;100262.59;4981571;28;20046;-71
2023/01/19 03:04:38;;;;;;;23.00;11.88;;;;;;;3.83;81.43;100261.25;4984213;28;20054;-72
2023/01/19 03:07:32;;;;;;;20.98;11.77;;;;;;;3.56;82.08;100263.56;4981887;28;20054;-70
2023/01/19 03:10:07;;;;;;;18.77;11.60;;;;;;;3.76;82.46;100260.75;4972067;28;20500;-71
2023/01/19 03:12:51;;;;;;;20.85;11.63;;;;;;;4.00;81.45;100269.88;4981518;28;20137;-72
2023/01/19 03:15:30;;;;;;;23.27;11.80;;;;;;;3.75;81.37;100278.97;4975780;28;20046;-72
2023/01/19 03:18:00;;;;;;;20.85;11.70;;;;;;;3.64;81.81;100273.88;4968396;28;20059;-72
2023/01/19 03:20:28;;;;;;;21.67;11.55;;;;;;;3.70;81.67;100272.75;4991694;28;20055;-70
2023/01/19 03:23:00;;;;;;;21.80;10.55;;;;;;;3.71;81.63;100272.50;4967965;28;20069;-71
2023/01/19 03:25:30;;;;;;;20.00;11.45;;;;;;;3.87;81.56;100256.88;4973024;28;20643;-72
2023/01/19 03:27:58;;;;;;;16.80;10.65;;;;;;;3.90;82.03;100272.66;4957628;28;20539;-72
2023/01/19 03:30:39;;;;;;;20.88;11.70;;;;;;;3.80;81.56;100268.06;4991088;28;20046;-73
2023/01/19 03:33:14;;;;;;;20.15;11.60;;;;;;;3.22;82.20;100266.13;4957977;28;20053;-71
2023/01/19 03:35:45;;;;;;;24.50;12.40;;;;;;;3.18;83.37;100271.28;4991602;28;20061;-72
2023/01/19 03:38:21;;;;;;;22.65;12.98;;;;;;;3.50;84.13;100278.28;4958428;28;20043;-71
2023/01/19 03:40:49;;;;;;;21.23;11.80;;;;;;;3.71;82.66;100272.50;4980586;28;20046;-72
2023/01/19 03:43:17;;;;;;;18.67;11.18;;;;;;;3.78;82.50;100278.44;4975530;28;20054;-73
2023/01/19 03:45:45;;;;;;;20.17;12.10;;;;;;;3.80;81.55;100276.22;4991181;28;20055;-72
2023/01/19 03:48:13;;;;;;;19.55;11.70;;;;;;;3.93;81.65;100283.81;4988620;28;20446;-72
2023/01/19 03:50:40;;;;;;;20.17;11.85;;;;;;;3.57;81.31;100278.78;4993777;28;20077;-72
2023/01/19 03:53:10;;;;;;;22.73;12.27;;;;;;;3.69;82.54;100284.75;4978290;28;20398;-72
2023/01/19 03:55:40;;;;;;;22.83;12.93;;;;;;;3.94;82.47;100271.81;4990753;28;20406;-72
2023/01/19 03:58:08;;;;;;;23.58;12.10;;;;;;;4.08;81.81;100275.53;4958447;28;20055;-71
2023/01/19 04:00:35;;;;;;;20.35;12.18;;;;;;;3.62;81.57;100285.03;4975528;28;20049;-72
2023/01/19 04:03:04;;;;;;;20.77;12.25;;;;;;;3.67;81.91;100279.56;4974669;28;20043;-71
2023/01/19 04:05:32;;;;;;;22.33;13.32;;;;;;;3.46;82.06;100288.91;4994633;28;20058;-71
2023/01/19 04:08:00;;;;;;;24.90;13.40;;;;;;;3.56;82.04;100285.34;4996093;28;20050;-72
2023/01/19 04:10:28;;;;;;;22.10;12.07;;;;;;;3.82;81.54;100284.16;4988946;28;20055;-73
2023/01/19 04:13:00;;;;;;;21.60;13.18;;;;;;;3.89;80.92;100287.38;4977459;28;20043;-70
2023/01/19 04:15:29;;;;;;;19.90;12.07;;;;;;;3.87;81.10;100276.75;4993247;28;20070;-72
2023/01/19 04:18:01;;;;;;;25.08;12.45;;;;;;;3.72;81.16;100279.56;4978532;28;20050;-72
2023/01/19 04:20:29;;;;;;;18.45;11.93;;;;;;;3.68;81.75;100280.41;4961790;28;20407;-72
2023/01/19 04:23:00;;;;;;;20.67;12.65;;;;;;;3.74;81.89;100277.38;4984927;28;20062;-71
2023/01/19 04:25:28;;;;;;;21.13;12.50;;;;;;;3.84;81.70;100276.50;4977524;28;20047;-71
2023/01/19 04:27:59;;;;;;;20.27;12.60;;;;;;;3.44;81.93;100277.47;4996253;28;20054;-71
2023/01/19 04:30:26;;;;;;;18.85;12.93;;;;;;;3.66;82.14;100280.66;5010784;28;20486;-71
2023/01/19 04:32:55;;;;;;;20.20;12.68;;;;;;;3.73;81.53;100274.94;4958260;28;20061;-71
2023/01/19 04:35:22;;;;;;;23.00;12.60;;;;;;;3.72;81.53;100268.66;4977945;28;20054;-71
2023/01/19 04:37:50;;;;;;;19.85;12.23;;;;;;;3.82;80.79;100279.50;5011344;28;20062;-71
2023/01/19 04:40:20;;;;;;;20.23;12.43;;;;;;;3.93;80.65;100277.53;4977600;28;20062;-73
2023/01/19 04:42:49;;;;;;;22.50;12.38;;;;;;;3.83;80.39;100272.16;4975993;28;20491;-71
2023/01/19 04:45:17;;;;;;;20.90;11.57;;;;;;;3.74;80.34;100280.09;4977657;28;20070;-71
2023/01/19 04:47:45;;;;;;;21.45;12.23;;;;;;;3.83;80.57;100277.59;4980764;28;20054;-72
2023/01/19 04:50:12;;;;;;;21.45;11.05;;;;;;;3.65;81.18;100275.50;4998712;28;20054;-73
2023/01/19 04:52:40;;;;;;;19.52;12.13;;;;;;;3.67;81.32;100279.56;4985266;28;20066;-72
2023/01/19 04:55:07;;;;;;;19.73;11.80;;;;;;;3.68;80.79;100283.91;4979958;28;20058;-70
2023/01/19 04:57:35;;;;;;;17.45;10.13;;;;;;;3.51;80.83;100290.78;4978095;28;20066;-72
2023/01/19 05:00:05;;;;;;;18.95;10.25;;;;;;;3.66;81.24;100288.03;4994577;28;20058;-71
2023/01/19 05:02:33;;;;;;;18.08;10.20;;;;;;;3.73;81.85;100289.34;4996180;28;20051;-71
2023/01/19 05:05:01;;;;;;;21.52;10.65;;;;;;;3.38;81.54;100284.84;4961271;28;20058;-71
2023/01/19 05:07:29;;;;;;;20.02;10.63;;;;;;;3.28;82.01;100284.88;4977953;28;20043;-71
2023/01/19 05:09:56;;;;;;;19.27;11.25;;;;;;;3.17;82.67;100285.19;4979650;28;20054;-72
2023/01/19 05:12:24;;;;;;;18.60;9.98;;;;;;;3.20;82.83;100282.72;4980508;28;20050;-70
2023/01/19 05:14:51;;;;;;;21.63;10.63;;;;;;;3.15;83.15;100284.63;4977712;28;20042;-72
2023/01/19 05:17:19;;;;;;;21.88;10.98;;;;;;;3.21;83.21;100289.78;5010825;28;20053;-71
2023/01/19 05:19:47;;;;;;;25.20;10.77;;;;;;;3.26;83.17;100288.97;4981881;28;20065;-71
2023/01/19 05:22:15;;;;;;;18.83;10.20;;;;;;;3.37;83.07;100288.66;4983197;28;20062;-71
2023/01/19 05:24:43;;;;;;;18.70;9.90;;;;;;;3.09;82.93;100289.25;4960049;29;20055;-73
2023/01/19 05:27:10;;;;;;;20.05;9.77;;;;;;;3.26;83.08;100286.25;4979802;28;20066;-72
2023/01/19 05:29:38;;;;;;;17.35;9.38;;;;;;;3.42;82.80;100290.53;4984018;28;20058;-71
2023/01/19 05:32:05;;;;;;;16.40;8.68;;;;;;;3.56;81.94;100286.16;4989755;28;20050;-71
2023/01/19 05:34:33;;;;;;;16.73;8.85;;;;;;;3.47;81.96;100290.53;4982008;28;20058;-72
2023/01/19 05:37:01;;;;;;;19.25;10.07;;;;;;;3.22;82.57;100296.06;4993147;28;20134;-71
2023/01/19 05:39:29;;;;;;;19.25;9.60;;;;;;;3.05;83.08;100290.09;5013641;28;20051;-73
2023/01/19 05:41:57;;;;;;;17.15;9.10;;;;;;;3.18;83.27;100289.53;5005274;28;20055;-73
2023/01/19 05:44:24;;;;;;;15.52;9.13;;;;;;;3.08;83.27;100287.66;4972056;28;20051;-71
2023/01/19 05:46:52;;;;;;;18.95;9.98;;;;;;;3.28;83.03;100294.94;5002153;28;20043;-71
2023/01/19 05:49:20;;;;;;;16.77;9.13;;;;;;;3.29;82.86;100293.88;5013657;28;20061;-72
2023/01/19 05:51:47;;;;;;;15.90;9.30;;;;;;;3.20;83.45;100290.06;4990482;28;20047;-71
2023/01/19 05:54:15;;;;;;;15.27;8.95;;;;;;;3.26;82.73;100288.97;4978974;28;20051;-71
2023/01/19 05:56:42;;;;;;;19.52;9.40;;;;;;;3.47;83.08;100292.44;4984176;28;20055;-73
2023/01/19 05:59:10;;;;;;;18.20;9.10;;;;;;;3.14;82.65;100289.25;4978068;28;20055;-73
2023/01/19 06:01:37;;;;;;;16.02;9.15;;;;;;;3.33;83.01;100297.63;4971969;28;20047;-71
2023/01/19 06:04:06;;;;;;;16.25;8.65;;;;;;;3.58;82.56;100292.13;4965593;28;20047;-72
2023/01/19 06:06:34;;;;;;;17.30;8.95;;;;;;;3.44;82.95;100291.91;4971455;28;20042;-72
2023/01/19 06:09:01;;;;;;;17.70;8.82;;;;;;;3.21;83.12;100297.94;4991195;28;20058;-72
2023/01/19 06:11:29;;;;;;;17.02;9.38;;;;;;;3.22;83.93;100288.72;5002991;28;20046;-72
2023/01/19 06:13:56;;;;;;;20.83;8.80;;;;;;;2.93;84.08;100303.19;4977315;28;20058;-73
2023/01/19 06:16:23;;;;;;;17.60;8.25;;;;;;;3.15;84.55;100292.81;5001424;28;20061;-71
2023/01/19 06:18:52;;;;;;;16.45;7.80;;;;;;;3.06;84.33;100297.16;4997892;28;20046;-72
2023/01/19 06:21:19;;;;;;;18.95;9.10;;;;;;;3.20;83.89;100298.22;4997275;28;20038;-72
2023/01/19 06:23:47;;;;;;;19.10;7.40;;;;;;;3.12;84.28;100293.34;4983470;28;20061;-71
2023/01/19 06:26:14;;;;;;;17.50;8.10;;;;;;;3.03;84.58;100301.22;5001109;28;20050;-72
2023/01/19 06:28:42;;;;;;;17.58;7.85;;;;;;;3.30;83.95;100309.91;4978912;28;20065;-72
2023/01/19 06:31:09;;;;;;;18.45;8.73;;;;;;;3.30;82.94;100298.19;4994963;28;20062;-72
2023/01/19 06:33:36;;;;;;;12.93;7.72;;;;;;;3.50;83.23;100297.34;4975252;28;20046;-71
2023/01/19 06:36:04;;;;;;;17.38;7.97;;;;;;;3.36;83.02;100306.06;4991011;28;20041;-72
2023/01/19 06:38:31;;;;;;;13.93;8.02;;;;;;;3.21;83.65;100311.56;4986105;28;20066;-71
2023/01/19 06:41:01;;;;;;;15.75;7.60;;;;;;;3.30;83.59;100314.53;4981267;28;20050;-70
2023/01/19 06:43:30;;;;;;;18.38;7.88;;;;;;;3.34;82.97;100313.72;4990072;28;20526;-72
2023/01/19 06:45:59;;;;;;;13.27;6.70;;;;;;;3.53;82.62;100316.66;4966525;28;20046;-71
2023/01/19 06:48:27;;;;;;;13.07;7.35;;;;;;;3.61;82.39;100316.06;4968882;28;20066;-71
2023/01/19 06:50:54;;;;;;;16.60;6.97;;;;;;;3.42;82.11;100320.50;4999096;28;20050;-72
2023/01/19 06:53:26;;;;;;;15.35;6.80;;;;;;;3.53;82.53;100316.66;4972443;28;20518;-71
2023/01/19 06:56:00;;;;;;;14.90;7.20;;;;;;;3.42;82.40;100315.03;4985658;28;20532;-72
2023/01/19 06:58:31;;;;;;;16.85;7.18;;;;;;;3.41;82.36;100318.88;4976264;28;20049;-71
2023/01/19 07:01:03;;;;;;;15.95;6.53;;;;;;;3.30;82.22;100320.78;4973272;28;20046;-71
2023/01/19 07:03:31;;;;;;;14.02;5.97;;;;;;;3.36;82.92;100316.97;4975391;28;20057;-72
2023/01/19 07:06:03;;;;;;;12.20;5.95;;;;;;;3.23;83.30;100316.72;4956755;28;20042;-71
2023/01/19 07:08:30;;;;;;;12.80;6.10;;;;;;;3.26;83.36;100318.91;4983177;28;20047;-72
2023/01/19 07:11:00;;;;;;;12.27;5.65;;;;;;;3.44;82.66;100312.88;4998236;28;20050;-71
2023/01/19 07:13:50;;;;;;;18.45;9.07;;;;;;;3.26;82.20;100316.19;4975793;28;20502;-72
2023/01/19 07:16:17;;;;;;;25.08;13.07;;;;;;;3.20;82.64;100315.38;4984572;28;20053;-72
2023/01/19 07:18:47;;;;;;;13.35;7.53;;;;;;;3.28;82.42;100303.09;4988704;28;20068;-71
2023/01/19 07:21:15;;;;;;;11.40;6.50;;;;;;;3.32;82.42;100306.91;4964302;28;20511;-70
2023/01/19 07:23:42;;;;;;;12.70;5.88;;;;;;;3.63;82.25;100313.09;4986105;28;20050;-72
2023/01/19 07:26:10;;;;;;;14.38;6.20;;;;;;;3.53;82.56;100311.22;4990594;28;20057;-76
2023/01/19 07:28:37;;;;;;;15.65;6.40;;;;;;;4.07;84.72;100316.72;4993752;28;20392;-73
2023/01/19 07:31:05;;;;;;;15.30;6.55;;;;;;;4.55;82.97;100302.22;4998928;28;20672;-73
2023/01/19 07:33:32;;;;;;;17.20;6.38;;;;;;;4.62;81.16;100310.09;4982322;28;20042;-73
2023/01/19 07:36:00;;;;;;;15.65;6.70;;;;;;;4.40;79.42;100316.78;4988236;28;20046;-73
2023/01/19 07:38:27;;;;;;;12.52;6.13;;;;;;;4.47;80.45;100317.28;4976349;28;20303;-73
2023/01/19 07:41:02;;;;;;;11.13;6.68;;;;;;;4.13;78.92;100319.13;4971640;28;20900;-72
2023/01/19 07:43:31;;;;;;;35.15;20.48;;;;;;;4.19;78.84;100323.47;4949962;28;20411;-73
2023/01/19 07:45:59;;;;;;;21.13;8.07;;;;;;;4.37;81.61;100328.28;4982147;28;20046;-72
2023/01/19 07:48:27;;;;;;;16.40;8.45;;;;;;;4.42;79.34;100328.22;4975469;28;20125;-72
2023/01/19 07:51:16;;;;;;;20.95;8.85;;;;;;;4.23;78.70;100327.25;4957144;28;20058;-71
2023/01/19 07:53:44;;;;;;;18.60;8.60;;;;;;;4.90;79.50;100331.16;4975176;28;20419;-72
2023/01/19 07:56:12;;;;;;;14.27;8.35;;;;;;;4.25;77.33;100329.69;4970787;28;20054;-73
2023/01/19 07:58:39;;;;;;;17.05;8.73;;;;;;;4.53;78.02;100337.97;4973012;28;20062;-71
2023/01/19 08:01:09;;;;;;;18.45;7.93;;;;;;;4.04;77.69;100334.44;4959589;28;20956;-73
2023/01/19 08:03:37;;;;;;;15.43;8.23;;;;;;;4.59;78.18;100344.19;4983675;28;20054;-74
2023/01/19 08:06:05;;;;;;;13.82;7.25;;;;;;;4.49;76.93;100336.91;4977159;28;20616;-71
2023/01/19 08:08:33;;;;;;;13.43;8.07;;;;;;;3.92;77.49;100339.41;4971496;28;20043;-70
2023/01/19 08:11:00;;;;;;;15.10;8.60;;;;;;;4.04;79.75;100345.34;4972837;28;20057;-70
2023/01/19 08:13:27;;;;;;;26.48;15.40;;;;;;;3.93;78.18;100345.66;4978402;28;20050;-68
2023/01/19 08:15:55;;;;;;;16.77;8.02;;;;;;;3.41;79.85;100346.09;4962161;28;20043;-68
2023/01/19 08:18:22;;;;;;;16.80;9.80;;;;;;;3.21;80.79;100349.66;4972848;28;20051;-72
2023/01/19 08:20:50;;;;;;;17.52;8.75;;;;;;;3.08;81.42;100352.13;4962225;28;20540;-71
2023/01/19 08:23:18;;;;;;;18.55;9.27;;;;;;;3.09;82.08;100353.75;4980976;28;20054;-66
2023/01/19 08:25:45;;;;;;;19.23;9.25;;;;;;;3.18;82.46;100358.38;4975359;28;20512;-65
2023/01/19 08:28:15;;;;;;;18.08;8.55;;;;;;;3.09;82.63;100354.56;4978212;28;20047;-65
2023/01/19 08:30:43;;;;;;;17.65;8.63;;;;;;;2.88;83.27;100357.56;4978293;28;20051;-66
2023/01/19 08:33:11;;;;;;;17.10;9.18;;;;;;;2.90;83.62;100356.22;4974580;28;20043;-65
2023/01/19 08:35:41;;;;;;;18.98;9.35;;;;;;;3.04;83.02;100356.47;4994936;28;20050;-67
2023/01/19 08:38:09;;;;;;;18.15;10.10;;;;;;;2.96;83.76;100362.47;4978058;28;20164;-67
2023/01/19 08:40:38;;;;;;;22.38;12.82;;;;;;;3.20;83.24;100352.66;4986576;28;20054;-67
2023/01/19 08:43:08;;;;;;;18.92;10.38;;;;;;;3.04;83.31;100354.56;4995203;28;20050;-67
2023/01/19 08:45:36;;;;;;;17.20;9.85;;;;;;;3.07;84.19;100355.91;4991438;28;20057;-66
2023/01/19 08:48:05;;;;;;;16.73;9.68;;;;;;;3.12;83.76;100353.22;4989435;28;20043;-66
2023/01/19 08:50:33;;;;;;;17.02;9.85;;;;;;;3.23;83.64;100360.25;4981562;28;20061;-67
2023/01/19 08:53:03;;;;;;;17.20;9.60;;;;;;;3.47;82.96;100357.78;4992605;28;20064;-66
2023/01/19 08:55:30;;;;;;;21.67;10.70;;;;;;;3.25;82.94;100358.09;4976161;28;20057;-65
2023/01/19 08:57:58;;;;;;;19.60;11.88;;;;;;;3.27;83.33;100359.47;4980016;28;20050;-66
2023/01/19 09:00:26;;;;;;;26.80;13.88;;;;;;;3.48;82.59;100360.22;4976627;28;20059;-67
2023/01/19 09:02:55;;;;;;;32.92;19.52;;;;;;;3.62;82.34;100366.75;4971220;28;20058;-66
2023/01/19 09:05:23;;;;;;;25.77;12.77;;;;;;;3.71;81.92;100367.81;4993368;28;20051;-69
2023/01/19 09:07:50;;;;;;;21.92;12.95;;;;;;;3.46;82.56;100373.31;4972253;28;20050;-68
2023/01/19 09:10:18;;;;;;;23.33;12.35;;;;;;;3.63;82.97;100371.06;4972042;28;20059;-68
2023/01/19 09:12:45;;;;;;;24.15;11.85;;;;;;;3.85;81.58;100370.75;4959518;28;20055;-70
2023/01/19 09:15:13;;;;;;;25.17;11.60;;;;;;;3.63;81.52;100367.56;4983893;28;20533;-67
2023/01/19 09:17:41;;;;;;;21.15;10.18;;;;;;;3.32;82.42;100374.94;4974926;28;20057;-68
2023/01/19 09:20:09;;;;;;;18.95;10.07;;;;;;;3.53;82.08;100373.00;4972160;28;20714;-68
2023/01/19 09:22:38;;;;;;;18.55;10.25;;;;;;;3.77;82.03;100371.31;4973640;28;20422;-68
2023/01/19 09:25:07;;;;;;;19.35;11.35;;;;;;;3.98;80.26;100361.97;4971237;28;20497;-67
2023/01/19 09:27:34;;;;;;;21.85;11.15;;;;;;;3.84;80.47;100364.47;4993787;28;20059;-74
2023/01/19 09:30:03;;;;;;;21.27;10.63;;;;;;;4.22;80.17;100361.03;4975985;28;20058;-68
2023/01/19 09:32:31;;;;;;;22.67;13.43;;;;;;;3.83;79.86;100356.59;4979417;28;20054;-67
2023/01/19 09:34:59;;;;;;;25.80;14.13;;;;;;;3.78;80.70;100368.34;4959248;28;20146;-69
2023/01/19 09:37:26;;;;;;;32.80;16.13;;;;;;;3.73;81.25;100365.59;4990128;28;20046;-69
2023/01/19 09:39:53;;;;;;;31.25;16.02;;;;;;;3.74;80.73;100364.53;4993232;28;20051;-68
2023/01/19 09:42:41;;;;;;;27.88;15.10;;;;;;;3.83;80.94;100360.13;5008005;28;20129;-68
2023/01/19 09:45:48;;;;;;;28.83;15.70;;;;;;;3.99;79.96;100369.88;4955646;28;20414;-69
2023/01/19 09:48:25;;;;;;;30.20;16.27;;;;;;;4.18;79.54;100370.91;4928905;28;20043;-68
2023/01/19 09:50:55;;;;;;;31.23;16.98;;;;;;;4.20;79.28;100368.69;4994902;28;20046;-69
2023/01/19 09:53:39;;;;;;;29.83;15.50;;;;;;;3.99;79.25;100371.78;4976698;28;20430;-69
2023/01/19 09:56:11;;;;;;;27.95;14.98;;;;;;;3.99;79.92;100371.78;4974530;28;20640;-70
2023/01/19 09:58:39;;;;;;;27.15;15.50;;;;;;;4.03;80.40;100372.84;4991516;28;20046;-69
2023/01/19 10:01:22;;;;;;;28.27;15.25;;;;;;;4.07;79.41;100372.03;4990577;28;20065;-70
2023/01/19 10:03:58;;;;;;;26.40;14.98;;;;;;;4.52;78.92;100374.53;4954680;28;20414;-68
2023/01/19 10:06:26;;;;;;;32.25;15.10;;;;;;;4.37;77.92;100377.34;4994534;28;20081;-67
2023/01/19 10:09:05;;;;;;;25.15;14.23;;;;;;;4.39;78.76;100369.66;4989934;28;20165;-68
2023/01/19 10:11:40;;;;;;;28.50;14.30;;;;;;;4.35;78.98;100374.06;4989599;28;20058;-69
2023/01/19 10:14:29;;;;;;;25.65;14.65;;;;;;;4.40;78.65;100375.94;4958507;28;20073;-68
2023/01/19 10:17:04;;;;;;;29.40;14.63;;;;;;;4.32;78.95;100377.34;4977525;28;20053;-70
2023/01/19 10:19:36;;;;;;;32.00;15.15;;;;;;;4.26;79.09;100375.75;4976188;28;20566;-70
2023/01/19 10:22:22;;;;;;;29.60;15.07;;;;;;;4.34;78.93;100375.16;4954889;28;20059;-70
2023/01/19 10:24:59;;;;;;;33.72;15.35;;;;;;;4.38;78.81;100369.97;4976007;28;20077;-69
2023/01/19 10:27:30;;;;;;;27.00;14.75;;;;;;;4.59;78.38;100376.94;4953702;28;21852;-69
2023/01/19 10:30:00;;;;;;;27.98;15.43;;;;;;;4.60;78.17;100365.72;5003191;28;20537;-69
2023/01/19 10:32:34;;;;;;;30.25;15.05;;;;;;;4.74;77.45;100370.56;4978783;28;20047;-69
2023/01/19 10:35:20;;;;;;;25.20;13.98;;;;;;;4.66;77.92;100358.34;4977801;28;20055;-70
2023/01/19 10:37:48;;;;;;;31.00;15.73;;;;;;;4.41;79.17;100361.25;4976519;28;20055;-71
2023/01/19 10:40:46;;;;;;;27.85;15.32;;;;;;;4.84;78.28;100351.38;4966184;28;20051;-73
2023/01/19 10:43:32;;;;;;;24.73;14.30;;;;;;;4.93;77.78;100346.97;4978708;28;20058;-74
2023/01/19 10:46:04;;;;;;;25.33;13.88;;;;;;;5.03;78.00;100342.22;4976335;28;20051;-75
2023/01/19 10:48:39;;;;;;;31.35;15.10;;;;;;;4.73;77.24;100337.00;4976703;28;20054;-74
2023/01/19 10:51:07;;;;;;;25.08;13.73;;;;;;;4.90;77.47;100344.81;4962057;28;20054;-74
2023/01/19 10:53:35;;;;;;;27.38;14.98;;;;;;;4.83;77.80;100342.38;4976728;28;20050;-73
2023/01/19 10:56:21;;;;;;;25.88;14.18;;;;;;;4.92;77.69;100342.59;4972913;28;20061;-74
2023/01/19 10:58:49;;;;;;;30.35;13.80;;;;;;;4.96;77.13;100336.28;4970358;28;20503;-74
2023/01/19 11:01:18;;;;;;;29.85;13.90;;;;;;;4.83;77.92;100339.66;4974693;28;20050;-73
2023/01/19 11:03:45;;;;;;;34.33;22.25;;;;;;;4.98;77.82;100336.00;4976936;28;20058;-72
2023/01/19 11:06:13;;;;;;;27.38;13.77;;;;;;;4.78;78.45;100334.25;4958478;28;20054;-72
2023/01/19 11:08:43;;;;;;;21.48;12.88;;;;;;;4.83;78.37;100331.47;4989856;28;20059;-72
2023/01/19 11:11:11;;;;;;;32.13;18.65;;;;;;;4.99;78.26;100332.16;4979905;28;20049;-72
2023/01/19 11:13:39;;;;;;;27.58;14.93;;;;;;;5.11;78.19;100327.94;4974306;28;21666;-73
2023/01/19 11:16:11;;;;;;;24.45;12.80;;;;;;;5.63;76.95;100327.16;4947425;28;20062;-73
2023/01/19 11:18:39;;;;;;;25.13;13.32;;;;;;;5.35;75.96;100326.06;4976481;28;20043;-75
2023/01/19 11:21:09;;;;;;;25.70;13.75;;;;;;;5.02;76.82;100321.47;4942840;28;20062;-73
2023/01/19 11:23:45;;;;;;;32.53;16.95;;;;;;;5.25;77.50;100320.72;4976343;28;20116;-71
2023/01/19 11:26:23;;;;;;;43.25;18.98;;;;;;;5.51;76.58;100322.09;4978807;28;20061;-74
2023/01/19 11:28:53;;;;;;;28.73;16.08;;;;;;;5.54;76.46;100318.78;4969790;28;20054;-75
2023/01/19 11:31:30;;;;;;;31.85;16.48;;;;;;;5.69;76.27;100318.63;4975660;28;20057;-69
2023/01/19 11:33:59;;;;;;;22.88;14.88;;;;;;;5.46;75.97;100311.22;4976803;28;20046;-71
2023/01/19 11:36:30;;;;;;;68.10;30.25;;;;;;;5.67;78.94;100312.63;4995797;28;20063;-70
2023/01/19 11:39:23;;;;;;;76.82;34.83;;;;;;;5.97;76.77;100316.94;4992292;28;20046;-67
2023/01/19 11:41:55;;;;;;;36.63;21.10;;;;;;;5.96;74.79;100315.31;4977311;28;20066;-70
2023/01/19 11:44:34;;;;;;;30.33;21.65;;;;;;;5.78;75.40;100309.75;4970921;28;20050;-68
2023/01/19 11:47:11;;;;;;;29.23;16.85;;;;;;;5.93;74.80;100304.16;4974202;28;20126;-72
2023/01/19 11:49:54;;;;;;;49.10;21.83;;;;;;;5.68;74.95;100305.25;4983936;28;20066;-68